Portada
METAR-TAF:

METAR-TAF

Aeroports :

Brazzaville, Congo

latitud: 04-15S, longitud: 015-15E, altitud: 319 m

Observació

L'informe es va fer fa 2 hores i 21 minuts, a les 06:00 UTC
Vent 2 kt del Sud/Sud-Oest
Temperatura 22°C
Humitat 88%
Pressió 1015 hPa
Visibilitat: 4500 m
Núvols disperses a una alçada de 2600 ft
boirina,

METAR: FCBB 230600Z 21002KT 4500 BR SCT026 22/20 Q1015 NOSIG

Hora: 09:21 (08:21 UTC)

Pronòstic

L'informe es va fer fa 3 hores i 21 minuts, a les 05:00 UTC
Pronòstic vàlid del 23 a les 06 UTC al 24 a les 12 UTC
Vent 4 kt del Oest/Sud-Oest
Visibilitat: 4000 m
Escasses núvols a una alçada de 1600 ft
Núvols disperses a una alçada de 2300 ft
boirina
Evolucionant progressivament
l' 23 a les 07 UTC al 23 a les 09 UTC
Visibilitat: 7000 m
Probabilitat 40%
l' 24 a les 05 UTC al 24 a les 08 UTC
Visibilitat: 4000 m
boirina,

TAF: FCBB 230500Z 2306/2412 25004KT 4000 BR FEW016 SCT023 BECMG 2307/2309 7000 NSW PROB40 2405/2408 4000 BR

Observacions i pronòstics meteorològics de més de 4000 aeroports (METAR i TAF).

Les estacions disponibles són els punts grocs i vermells al mapa.

Posi el ratolí al punt desitjat per veure el nom de l'estació.

Feu clic per veure les observacions i els pronòstics meteorològics.

Per canviar el mapa: feu clic els botons verds amb una creu de color negre per apropar; al botó verd amb un guió per allunyar la imatge; o en les fletxes verdes per a mapes adjacents.


METAR-TAF: